sensor_id;sensor_type;location;lat;lon;timestamp;temperature;humidity
36924;DHT22;22841;50.252;18.688;2022-09-01T00:00:39;14.30;28.60
36924;DHT22;22841;50.252;18.688;2022-09-01T00:03:12;14.20;22.60
36924;DHT22;22841;50.252;18.688;2022-09-01T00:05:39;14.10;21.80
36924;DHT22;22841;50.252;18.688;2022-09-01T00:08:06;14.10;28.00
36924;DHT22;22841;50.252;18.688;2022-09-01T00:10:32;14.10;26.90
36924;DHT22;22841;50.252;18.688;2022-09-01T00:12:58;14.10;36.60
36924;DHT22;22841;50.252;18.688;2022-09-01T00:15:24;14.10;28.70
36924;DHT22;22841;50.252;18.688;2022-09-01T00:17:50;14.10;30.00
36924;DHT22;22841;50.252;18.688;2022-09-01T00:20:17;14.00;26.90
36924;DHT22;22841;50.252;18.688;2022-09-01T00:22:43;14.10;40.40
36924;DHT22;22841;50.252;18.688;2022-09-01T00:25:09;14.00;39.50
36924;DHT22;22841;50.252;18.688;2022-09-01T00:27:35;14.00;38.50
36924;DHT22;22841;50.252;18.688;2022-09-01T00:30:01;14.00;38.10
36924;DHT22;22841;50.252;18.688;2022-09-01T00:32:27;13.90;42.90
36924;DHT22;22841;50.252;18.688;2022-09-01T00:34:53;13.90;42.20
36924;DHT22;22841;50.252;18.688;2022-09-01T00:37:20;14.00;47.50
36924;DHT22;22841;50.252;18.688;2022-09-01T00:39:46;14.00;38.90
36924;DHT22;22841;50.252;18.688;2022-09-01T00:42:12;13.90;35.70
36924;DHT22;22841;50.252;18.688;2022-09-01T00:44:38;13.90;44.20
36924;DHT22;22841;50.252;18.688;2022-09-01T00:47:04;13.90;35.00
36924;DHT22;22841;50.252;18.688;2022-09-01T00:49:35;14.00;46.80
36924;DHT22;22841;50.252;18.688;2022-09-01T00:52:07;13.90;44.80
36924;DHT22;22841;50.252;18.688;2022-09-01T00:54:39;13.90;47.40
36924;DHT22;22841;50.252;18.688;2022-09-01T00:57:07;13.90;42.70
36924;DHT22;22841;50.252;18.688;2022-09-01T00:59:35;13.90;32.70
36924;DHT22;22841;50.252;18.688;2022-09-01T01:02:03;13.90;42.20
36924;DHT22;22841;50.252;18.688;2022-09-01T01:04:29;13.90;44.60
36924;DHT22;22841;50.252;18.688;2022-09-01T01:06:58;13.90;43.20
36924;DHT22;22841;50.252;18.688;2022-09-01T01:09:30;13.90;40.20
36924;DHT22;22841;50.252;18.688;2022-09-01T01:11:59;13.90;42.70
36924;DHT22;22841;50.252;18.688;2022-09-01T01:14:27;13.90;41.50
36924;DHT22;22841;50.252;18.688;2022-09-01T01:16:58;13.90;32.10
36924;DHT22;22841;50.252;18.688;2022-09-01T01:19:38;13.90;38.90
36924;DHT22;22841;50.252;18.688;2022-09-01T01:25:52;13.90;41.00
36924;DHT22;22841;50.252;18.688;2022-09-01T01:28:21;13.90;40.30
36924;DHT22;22841;50.252;18.688;2022-09-01T01:30:51;13.90;38.90
36924;DHT22;22841;50.252;18.688;2022-09-01T01:33:24;13.90;41.60
36924;DHT22;22841;50.252;18.688;2022-09-01T01:35:52;14.00;42.80
36924;DHT22;22841;50.252;18.688;2022-09-01T01:38:20;13.90;39.50
36924;DHT22;22841;50.252;18.688;2022-09-01T01:40:47;13.90;41.10
36924;DHT22;22841;50.252;18.688;2022-09-01T01:43:14;13.90;46.90
36924;DHT22;22841;50.252;18.688;2022-09-01T01:45:46;13.90;40.20
36924;DHT22;22841;50.252;18.688;2022-09-01T01:48:14;13.80;34.00
36924;DHT22;22841;50.252;18.688;2022-09-01T01:50:48;13.80;30.00
36924;DHT22;22841;50.252;18.688;2022-09-01T01:53:14;13.80;45.20
36924;DHT22;22841;50.252;18.688;2022-09-01T01:55:47;13.80;45.30
36924;DHT22;22841;50.252;18.688;2022-09-01T01:58:20;13.80;46.00
36924;DHT22;22841;50.252;18.688;2022-09-01T02:00:48;13.80;41.60
36924;DHT22;22841;50.252;18.688;2022-09-01T02:03:18;13.80;47.20
36924;DHT22;22841;50.252;18.688;2022-09-01T02:05:48;13.80;46.10
36924;DHT22;22841;50.252;18.688;2022-09-01T02:08:15;13.80;49.80
36924;DHT22;22841;50.252;18.688;2022-09-01T02:10:49;13.80;55.30
36924;DHT22;22841;50.252;18.688;2022-09-01T02:13:17;13.80;54.00
36924;DHT22;22841;50.252;18.688;2022-09-01T02:15:50;13.80;50.70
36924;DHT22;22841;50.252;18.688;2022-09-01T02:18:24;13.70;43.50
36924;DHT22;22841;50.252;18.688;2022-09-01T02:20:55;13.60;35.70
36924;DHT22;22841;50.252;18.688;2022-09-01T02:23:24;13.70;51.80
36924;DHT22;22841;50.252;18.688;2022-09-01T02:25:52;13.70;56.10
36924;DHT22;22841;50.252;18.688;2022-09-01T02:28:20;13.70;60.60
36924;DHT22;22841;50.252;18.688;2022-09-01T02:30:51;13.60;38.30
36924;DHT22;22841;50.252;18.688;2022-09-01T02:33:21;13.70;55.10
36924;DHT22;22841;50.252;18.688;2022-09-01T02:35:49;13.70;59.30
36924;DHT22;22841;50.252;18.688;2022-09-01T02:38:16;13.60;48.20
36924;DHT22;22841;50.252;18.688;2022-09-01T02:40:43;13.70;62.60
36924;DHT22;22841;50.252;18.688;2022-09-01T02:43:13;13.60;59.30
36924;DHT22;22841;50.252;18.688;2022-09-01T02:45:42;13.50;62.90
36924;DHT22;22841;50.252;18.688;2022-09-01T02:48:09;13.50;60.80
36924;DHT22;22841;50.252;18.688;2022-09-01T02:50:37;13.50;58.30
36924;DHT22;22841;50.252;18.688;2022-09-01T02:53:04;13.50;58.40
36924;DHT22;22841;50.252;18.688;2022-09-01T02:55:36;13.50;63.30
36924;DHT22;22841;50.252;18.688;2022-09-01T02:58:02;13.60;58.70
36924;DHT22;22841;50.252;18.688;2022-09-01T03:00:29;13.60;61.20
36924;DHT22;22841;50.252;18.688;2022-09-01T03:02:59;13.50;50.40
36924;DHT22;22841;50.252;18.688;2022-09-01T03:05:29;13.60;60.90
36924;DHT22;22841;50.252;18.688;2022-09-01T03:08:03;13.60;60.60
36924;DHT22;22841;50.252;18.688;2022-09-01T03:10:35;13.60;55.50
36924;DHT22;22841;50.252;18.688;2022-09-01T03:13:07;13.60;56.10
36924;DHT22;22841;50.252;18.688;2022-09-01T03:15:34;13.50;53.60
36924;DHT22;22841;50.252;18.688;2022-09-01T03:18:04;13.50;61.80
36924;DHT22;22841;50.252;18.688;2022-09-01T03:20:32;13.60;67.50
36924;DHT22;22841;50.252;18.688;2022-09-01T03:23:05;13.50;63.40
36924;DHT22;22841;50.252;18.688;2022-09-01T03:25:34;13.50;56.40
36924;DHT22;22841;50.252;18.688;2022-09-01T03:28:02;13.50;66.30
36924;DHT22;22841;50.252;18.688;2022-09-01T03:30:31;13.50;67.20
36924;DHT22;22841;50.252;18.688;2022-09-01T03:32:58;13.50;64.20
36924;DHT22;22841;50.252;18.688;2022-09-01T03:35:25;13.50;63.10
36924;DHT22;22841;50.252;18.688;2022-09-01T03:37:54;13.40;61.70
36924;DHT22;22841;50.252;18.688;2022-09-01T03:40:28;13.40;60.80
36924;DHT22;22841;50.252;18.688;2022-09-01T03:43:02;13.40;54.80
36924;DHT22;22841;50.252;18.688;2022-09-01T03:45:29;13.40;57.90
36924;DHT22;22841;50.252;18.688;2022-09-01T03:48:00;13.40;45.40
36924;DHT22;22841;50.252;18.688;2022-09-01T03:50:31;13.40;48.80
36924;DHT22;22841;50.252;18.688;2022-09-01T03:52:58;13.50;55.80
36924;DHT22;22841;50.252;18.688;2022-09-01T03:55:29;13.50;51.40
36924;DHT22;22841;50.252;18.688;2022-09-01T03:58:01;13.50;61.40
36924;DHT22;22841;50.252;18.688;2022-09-01T04:00:33;13.40;64.10
36924;DHT22;22841;50.252;18.688;2022-09-01T04:03:03;13.40;44.60
36924;DHT22;22841;50.252;18.688;2022-09-01T04:05:30;13.40;58.40
36924;DHT22;22841;50.252;18.688;2022-09-01T04:08:01;13.40;55.00
36924;DHT22;22841;50.252;18.688;2022-09-01T04:10:30;13.30;58.00
36924;DHT22;22841;50.252;18.688;2022-09-01T04:13:00;13.30;64.80
36924;DHT22;22841;50.252;18.688;2022-09-01T04:15:27;13.30;59.30
36924;DHT22;22841;50.252;18.688;2022-09-01T04:17:54;13.30;64.10
36924;DHT22;22841;50.252;18.688;2022-09-01T04:20:38;13.30;57.10
36924;DHT22;22841;50.252;18.688;2022-09-01T04:23:38;13.20;47.60
36924;DHT22;22841;50.252;18.688;2022-09-01T04:26:11;13.20;51.90
36924;DHT22;22841;50.252;18.688;2022-09-01T04:28:48;13.30;56.50
36924;DHT22;22841;50.252;18.688;2022-09-01T04:31:20;13.30;62.30
36924;DHT22;22841;50.252;18.688;2022-09-01T04:33:48;13.40;62.00
36924;DHT22;22841;50.252;18.688;2022-09-01T04:36:24;13.40;67.70
36924;DHT22;22841;50.252;18.688;2022-09-01T04:38:54;13.40;65.00
36924;DHT22;22841;50.252;18.688;2022-09-01T04:41:22;13.40;64.30
36924;DHT22;22841;50.252;18.688;2022-09-01T04:43:51;13.40;63.50
36924;DHT22;22841;50.252;18.688;2022-09-01T04:46:23;13.40;64.40
36924;DHT22;22841;50.252;18.688;2022-09-01T04:48:51;13.40;61.90
36924;DHT22;22841;50.252;18.688;2022-09-01T04:51:17;13.40;70.00
36924;DHT22;22841;50.252;18.688;2022-09-01T04:53:45;13.50;66.60
36924;DHT22;22841;50.252;18.688;2022-09-01T04:56:15;13.50;67.60
36924;DHT22;22841;50.252;18.688;2022-09-01T04:58:48;13.50;66.20
36924;DHT22;22841;50.252;18.688;2022-09-01T05:01:16;13.50;61.60
36924;DHT22;22841;50.252;18.688;2022-09-01T05:03:43;13.40;61.80
36924;DHT22;22841;50.252;18.688;2022-09-01T05:06:18;13.50;71.00
36924;DHT22;22841;50.252;18.688;2022-09-01T05:08:45;13.50;64.30
36924;DHT22;22841;50.252;18.688;2022-09-01T05:11:12;13.50;69.20
36924;DHT22;22841;50.252;18.688;2022-09-01T05:13:46;13.60;69.20
36924;DHT22;22841;50.252;18.688;2022-09-01T05:16:15;13.70;68.60
36924;DHT22;22841;50.252;18.688;2022-09-01T05:18:43;13.70;61.00
36924;DHT22;22841;50.252;18.688;2022-09-01T05:21:18;13.70;62.40
36924;DHT22;22841;50.252;18.688;2022-09-01T05:23:46;13.70;61.60
36924;DHT22;22841;50.252;18.688;2022-09-01T05:26:30;13.70;42.80
36924;DHT22;22841;50.252;18.688;2022-09-01T05:29:01;13.80;49.70
36924;DHT22;22841;50.252;18.688;2022-09-01T05:31:29;13.80;48.30
36924;DHT22;22841;50.252;18.688;2022-09-01T05:34:03;13.80;51.60
36924;DHT22;22841;50.252;18.688;2022-09-01T05:36:30;13.80;38.60
36924;DHT22;22841;50.252;18.688;2022-09-01T05:38:59;13.90;38.30
36924;DHT22;22841;50.252;18.688;2022-09-01T05:41:27;13.90;41.40
36924;DHT22;22841;50.252;18.688;2022-09-01T05:43:54;13.90;39.60
36924;DHT22;22841;50.252;18.688;2022-09-01T05:46:22;14.00;32.60
36924;DHT22;22841;50.252;18.688;2022-09-01T05:48:50;14.00;27.40
36924;DHT22;22841;50.252;18.688;2022-09-01T05:51:20;14.00;21.80
36924;DHT22;22841;50.252;18.688;2022-09-01T05:53:48;14.10;27.50
36924;DHT22;22841;50.252;18.688;2022-09-01T05:56:18;14.10;26.30
36924;DHT22;22841;50.252;18.688;2022-09-01T05:58:46;14.20;30.40
36924;DHT22;22841;50.252;18.688;2022-09-01T06:01:20;14.10;15.60
36924;DHT22;22841;50.252;18.688;2022-09-01T06:03:48;14.20;26.50
36924;DHT22;22841;50.252;18.688;2022-09-01T06:06:25;14.20;13.10
36924;DHT22;22841;50.252;18.688;2022-09-01T06:08:52;14.20;18.70
36924;DHT22;22841;50.252;18.688;2022-09-01T06:11:25;14.20;30.70
36924;DHT22;22841;50.252;18.688;2022-09-01T06:13:53;14.20;7.50
36924;DHT22;22841;50.252;18.688;2022-09-01T06:16:21;14.30;9.40
36924;DHT22;22841;50.252;18.688;2022-09-01T06:18:49;14.30;11.90
36924;DHT22;22841;50.252;18.688;2022-09-01T06:21:18;14.30;17.30
36924;DHT22;22841;50.252;18.688;2022-09-01T06:23:45;14.40;10.40
36924;DHT22;22841;50.252;18.688;2022-09-01T06:26:28;14.40;17.60
36924;DHT22;22841;50.252;18.688;2022-09-01T06:29:00;14.40;17.40
36924;DHT22;22841;50.252;18.688;2022-09-01T06:31:30;14.50;21.20
36924;DHT22;22841;50.252;18.688;2022-09-01T06:34:00;14.60;3.30
36924;DHT22;22841;50.252;18.688;2022-09-01T06:36:27;14.70;19.10
36924;DHT22;22841;50.252;18.688;2022-09-01T06:38:54;14.70;1.00
36924;DHT22;22841;50.252;18.688;2022-09-01T06:41:21;14.90;1.00
36924;DHT22;22841;50.252;18.688;2022-09-01T06:43:49;14.90;1.00
36924;DHT22;22841;50.252;18.688;2022-09-01T06:46:16;15.00;1.00
36924;DHT22;22841;50.252;18.688;2022-09-01T06:48:42;15.00;1.00
36924;DHT22;22841;50.252;18.688;2022-09-01T06:51:17;15.10;1.00
36924;DHT22;22841;50.252;18.688;2022-09-01T06:53:46;15.20;1.00
36924;DHT22;22841;50.252;18.688;2022-09-01T06:56:16;15.20;1.00
36924;DHT22;22841;50.252;18.688;2022-09-01T06:58:44;15.30;1.00
36924;DHT22;22841;50.252;18.688;2022-09-01T07:01:18;15.30;1.00
36924;DHT22;22841;50.252;18.688;2022-09-01T07:03:48;15.40;1.00
36924;DHT22;22841;50.252;18.688;2022-09-01T07:06:16;15.50;1.00
36924;DHT22;22841;50.252;18.688;2022-09-01T07:08:44;15.40;1.00
36924;DHT22;22841;50.252;18.688;2022-09-01T07:11:20;15.50;1.00
36924;DHT22;22841;50.252;18.688;2022-09-01T07:13:51;15.60;1.00
36924;DHT22;22841;50.252;18.688;2022-09-01T07:16:22;15.60;99.90
36924;DHT22;22841;50.252;18.688;2022-09-01T07:18:50;15.70;99.90
36924;DHT22;22841;50.252;18.688;2022-09-01T07:21:18;15.70;99.90
36924;DHT22;22841;50.252;18.688;2022-09-01T07:23:45;15.80;99.90
36924;DHT22;22841;50.252;18.688;2022-09-01T07:26:12;15.80;99.90
36924;DHT22;22841;50.252;18.688;2022-09-01T07:28:43;15.80;1.00
36924;DHT22;22841;50.252;18.688;2022-09-01T07:31:22;15.70;1.00
36924;DHT22;22841;50.252;18.688;2022-09-01T07:33:50;15.80;99.90
36924;DHT22;22841;50.252;18.688;2022-09-01T07:36:18;15.80;99.90
36924;DHT22;22841;50.252;18.688;2022-09-01T07:38:44;15.90;99.90
36924;DHT22;22841;50.252;18.688;2022-09-01T07:41:11;16.00;99.90
36924;DHT22;22841;50.252;18.688;2022-09-01T07:43:40;16.10;99.90
36924;DHT22;22841;50.252;18.688;2022-09-01T07:46:10;16.20;99.90
36924;DHT22;22841;50.252;18.688;2022-09-01T07:48:37;16.30;99.90
36924;DHT22;22841;50.252;18.688;2022-09-01T07:51:04;16.40;99.90
36924;DHT22;22841;50.252;18.688;2022-09-01T07:53:32;16.50;28.30
36924;DHT22;22841;50.252;18.688;2022-09-01T07:56:05;16.60;24.30
36924;DHT22;22841;50.252;18.688;2022-09-01T07:58:36;16.80;99.90
36924;DHT22;22841;50.252;18.688;2022-09-01T08:01:11;16.90;99.90
36924;DHT22;22841;50.252;18.688;2022-09-01T08:03:39;17.10;1.00
36924;DHT22;22841;50.252;18.688;2022-09-01T08:06:09;17.10;99.60
36924;DHT22;22841;50.252;18.688;2022-09-01T08:08:37;17.20;4.50
36924;DHT22;22841;50.252;18.688;2022-09-01T08:11:04;17.20;99.90
36924;DHT22;22841;50.252;18.688;2022-09-01T08:13:32;17.20;99.90
36924;DHT22;22841;50.252;18.688;2022-09-01T08:16:03;17.40;99.90
36924;DHT22;22841;50.252;18.688;2022-09-01T08:18:30;17.50;99.90
36924;DHT22;22841;50.252;18.688;2022-09-01T08:20:56;17.50;1.00
36924;DHT22;22841;50.252;18.688;2022-09-01T08:23:22;17.70;1.00
36924;DHT22;22841;50.252;18.688;2022-09-01T08:25:52;17.70;1.00
36924;DHT22;22841;50.252;18.688;2022-09-01T08:28:19;17.70;99.90
36924;DHT22;22841;50.252;18.688;2022-09-01T08:30:45;17.90;99.90
36924;DHT22;22841;50.252;18.688;2022-09-01T08:33:13;18.00;99.90
36924;DHT22;22841;50.252;18.688;2022-09-01T08:35:42;18.20;1.00
36924;DHT22;22841;50.252;18.688;2022-09-01T08:38:09;18.30;1.00
36924;DHT22;22841;50.252;18.688;2022-09-01T08:40:41;18.20;95.20
36924;DHT22;22841;50.252;18.688;2022-09-01T08:43:15;18.30;99.90
36924;DHT22;22841;50.252;18.688;2022-09-01T08:45:49;18.30;1.00
36924;DHT22;22841;50.252;18.688;2022-09-01T08:48:27;18.40;99.90
36924;DHT22;22841;50.252;18.688;2022-09-01T08:51:09;18.60;99.90
36924;DHT22;22841;50.252;18.688;2022-09-01T08:53:46;18.30;1.00
36924;DHT22;22841;50.252;18.688;2022-09-01T08:56:16;18.10;99.90
36924;DHT22;22841;50.252;18.688;2022-09-01T08:58:43;17.90;99.90
36924;DHT22;22841;50.252;18.688;2022-09-01T09:01:22;17.90;99.90
36924;DHT22;22841;50.252;18.688;2022-09-01T09:09:13;18.40;84.70
36924;DHT22;22841;50.252;18.688;2022-09-01T09:12:02;18.60;1.00
36924;DHT22;22841;50.252;18.688;2022-09-01T09:17:25;18.60;1.00
36924;DHT22;22841;50.252;18.688;2022-09-01T09:19:53;18.60;1.00
36924;DHT22;22841;50.252;18.688;2022-09-01T09:22:20;18.30;99.90
36924;DHT22;22841;50.252;18.688;2022-09-01T09:25:02;18.20;39.70
36924;DHT22;22841;50.252;18.688;2022-09-01T09:27:38;18.00;90.50
36924;DHT22;22841;50.252;18.688;2022-09-01T09:30:08;18.00;1.00
36924;DHT22;22841;50.252;18.688;2022-09-01T09:35:35;17.80;62.50
36924;DHT22;22841;50.252;18.688;2022-09-01T09:41:03;17.70;1.00
36924;DHT22;22841;50.252;18.688;2022-09-01T09:43:33;17.60;99.90
36924;DHT22;22841;50.252;18.688;2022-09-01T09:46:40;17.60;99.90
36924;DHT22;22841;50.252;18.688;2022-09-01T09:51:51;18.10;63.60
36924;DHT22;22841;50.252;18.688;2022-09-01T09:54:24;18.40;99.90
36924;DHT22;22841;50.252;18.688;2022-09-01T09:59:49;18.40;99.90
36924;DHT22;22841;50.252;18.688;2022-09-01T10:02:43;18.20;99.90
36924;DHT22;22841;50.252;18.688;2022-09-01T10:08:11;17.90;20.90
36924;DHT22;22841;50.252;18.688;2022-09-01T10:10:42;18.20;1.00
36924;DHT22;22841;50.252;18.688;2022-09-01T10:13:16;18.70;99.90
36924;DHT22;22841;50.252;18.688;2022-09-01T10:15:47;18.80;1.00
36924;DHT22;22841;50.252;18.688;2022-09-01T10:18:17;18.90;99.90
36924;DHT22;22841;50.252;18.688;2022-09-01T10:21:07;19.00;99.90
36924;DHT22;22841;50.252;18.688;2022-09-01T10:23:35;18.80;99.90
36924;DHT22;22841;50.252;18.688;2022-09-01T10:26:10;18.70;79.10
36924;DHT22;22841;50.252;18.688;2022-09-01T10:28:54;18.60;99.90
36924;DHT22;22841;50.252;18.688;2022-09-01T10:31:22;18.40;99.90
36924;DHT22;22841;50.252;18.688;2022-09-01T10:33:50;18.40;99.90
36924;DHT22;22841;50.252;18.688;2022-09-01T10:36:16;18.30;99.90
36924;DHT22;22841;50.252;18.688;2022-09-01T10:38:43;18.30;99.90
36924;DHT22;22841;50.252;18.688;2022-09-01T10:41:09;18.30;1.00
36924;DHT22;22841;50.252;18.688;2022-09-01T10:44:07;18.30;99.90
36924;DHT22;22841;50.252;18.688;2022-09-01T10:52:06;18.80;99.90
36924;DHT22;22841;50.252;18.688;2022-09-01T10:57:33;19.10;99.90
36924;DHT22;22841;50.252;18.688;2022-09-01T11:08:46;18.60;99.90
36924;DHT22;22841;50.252;18.688;2022-09-01T11:11:44;18.60;99.90
36924;DHT22;22841;50.252;18.688;2022-09-01T11:14:17;18.70;99.90
36924;DHT22;22841;50.252;18.688;2022-09-01T11:17:15;18.80;99.90
36924;DHT22;22841;50.252;18.688;2022-09-01T11:22:58;18.90;1.00
36924;DHT22;22841;50.252;18.688;2022-09-01T11:25:44;18.90;1.00
36924;DHT22;22841;50.252;18.688;2022-09-01T11:30:55;18.90;99.90
36924;DHT22;22841;50.252;18.688;2022-09-01T11:36:44;18.90;99.90
36924;DHT22;22841;50.252;18.688;2022-09-01T11:41:54;18.60;1.00
36924;DHT22;22841;50.252;18.688;2022-09-01T11:47:11;18.40;1.00
36924;DHT22;22841;50.252;18.688;2022-09-01T11:49:54;18.30;99.90
36924;DHT22;22841;50.252;18.688;2022-09-01T11:52:25;18.30;99.90
36924;DHT22;22841;50.252;18.688;2022-09-01T11:54:53;18.60;1.00
36924;DHT22;22841;50.252;18.688;2022-09-01T11:57:28;18.80;99.90
36924;DHT22;22841;50.252;18.688;2022-09-01T11:59:57;19.10;99.90
36924;DHT22;22841;50.252;18.688;2022-09-01T12:02:27;19.30;8.10
36924;DHT22;22841;50.252;18.688;2022-09-01T12:04:59;19.60;99.90
36924;DHT22;22841;50.252;18.688;2022-09-01T12:07:33;19.80;71.40
36924;DHT22;22841;50.252;18.688;2022-09-01T12:10:00;20.00;64.50
36924;DHT22;22841;50.252;18.688;2022-09-01T12:14:57;20.20;99.90
36924;DHT22;22841;50.252;18.688;2022-09-01T12:17:24;20.00;99.90
36924;DHT22;22841;50.252;18.688;2022-09-01T12:19:53;19.80;99.90
36924;DHT22;22841;50.252;18.688;2022-09-01T12:22:20;19.60;99.90
36924;DHT22;22841;50.252;18.688;2022-09-01T12:24:50;19.40;99.90
36924;DHT22;22841;50.252;18.688;2022-09-01T12:27:17;19.30;99.90
36924;DHT22;22841;50.252;18.688;2022-09-01T12:29:44;19.20;1.00
36924;DHT22;22841;50.252;18.688;2022-09-01T12:32:12;19.10;99.90
36924;DHT22;22841;50.252;18.688;2022-09-01T12:34:47;19.10;2.70
36924;DHT22;22841;50.252;18.688;2022-09-01T12:37:26;19.00;1.00
36924;DHT22;22841;50.252;18.688;2022-09-01T12:39:57;19.00;99.90
36924;DHT22;22841;50.252;18.688;2022-09-01T12:42:31;19.10;99.90
36924;DHT22;22841;50.252;18.688;2022-09-01T12:44:58;19.00;1.00
36924;DHT22;22841;50.252;18.688;2022-09-01T12:52:49;19.10;26.00
36924;DHT22;22841;50.252;18.688;2022-09-01T12:55:21;19.10;99.90
36924;DHT22;22841;50.252;18.688;2022-09-01T12:57:50;19.10;99.90
36924;DHT22;22841;50.252;18.688;2022-09-01T13:00:28;19.00;99.90
36924;DHT22;22841;50.252;18.688;2022-09-01T13:05:34;18.80;1.00
36924;DHT22;22841;50.252;18.688;2022-09-01T13:08:02;18.70;79.10
36924;DHT22;22841;50.252;18.688;2022-09-01T13:10:43;18.70;99.90
36924;DHT22;22841;50.252;18.688;2022-09-01T13:13:10;18.80;99.90
36924;DHT22;22841;50.252;18.688;2022-09-01T13:15:41;19.20;99.90
36924;DHT22;22841;50.252;18.688;2022-09-01T13:18:08;19.50;99.90
36924;DHT22;22841;50.252;18.688;2022-09-01T13:20:34;19.70;99.90
36924;DHT22;22841;50.252;18.688;2022-09-01T13:23:01;19.90;99.90
36924;DHT22;22841;50.252;18.688;2022-09-01T13:25:27;20.00;99.90
36924;DHT22;22841;50.252;18.688;2022-09-01T13:27:53;19.80;99.90
36924;DHT22;22841;50.252;18.688;2022-09-01T13:30:22;19.60;99.90
36924;DHT22;22841;50.252;18.688;2022-09-01T13:32:49;19.30;99.90
36924;DHT22;22841;50.252;18.688;2022-09-01T13:35:21;19.20;99.90
36924;DHT22;22841;50.252;18.688;2022-09-01T13:37:48;19.00;99.90
36924;DHT22;22841;50.252;18.688;2022-09-01T13:40:16;18.90;99.90
36924;DHT22;22841;50.252;18.688;2022-09-01T13:42:48;18.70;99.90
36924;DHT22;22841;50.252;18.688;2022-09-01T13:45:16;18.70;99.90
36924;DHT22;22841;50.252;18.688;2022-09-01T13:47:47;18.60;99.90
36924;DHT22;22841;50.252;18.688;2022-09-01T13:50:16;18.60;99.90
36924;DHT22;22841;50.252;18.688;2022-09-01T13:52:46;18.80;99.90
36924;DHT22;22841;50.252;18.688;2022-09-01T13:55:16;19.20;99.90
36924;DHT22;22841;50.252;18.688;2022-09-01T13:57:42;19.40;99.90
36924;DHT22;22841;50.252;18.688;2022-09-01T14:00:11;19.60;99.90
36924;DHT22;22841;50.252;18.688;2022-09-01T14:02:39;19.70;99.90
36924;DHT22;22841;50.252;18.688;2022-09-01T14:05:06;19.80;99.90
36924;DHT22;22841;50.252;18.688;2022-09-01T14:07:32;19.70;99.90
36924;DHT22;22841;50.252;18.688;2022-09-01T14:09:58;19.70;94.70
36924;DHT22;22841;50.252;18.688;2022-09-01T14:12:25;19.70;99.90
36924;DHT22;22841;50.252;18.688;2022-09-01T14:14:51;19.60;97.90
36924;DHT22;22841;50.252;18.688;2022-09-01T14:17:17;19.50;69.00
36924;DHT22;22841;50.252;18.688;2022-09-01T14:19:48;19.50;65.90
36924;DHT22;22841;50.252;18.688;2022-09-01T14:22:15;19.60;93.60
36924;DHT22;22841;50.252;18.688;2022-09-01T14:24:41;19.80;91.10
36924;DHT22;22841;50.252;18.688;2022-09-01T14:27:08;19.80;79.50
36924;DHT22;22841;50.252;18.688;2022-09-01T14:29:34;19.80;82.20
36924;DHT22;22841;50.252;18.688;2022-09-01T14:32:01;19.80;92.30
36924;DHT22;22841;50.252;18.688;2022-09-01T14:34:27;19.90;58.30
36924;DHT22;22841;50.252;18.688;2022-09-01T14:36:55;19.80;99.90
36924;DHT22;22841;50.252;18.688;2022-09-01T14:39:23;19.80;68.40
36924;DHT22;22841;50.252;18.688;2022-09-01T14:41:49;19.70;75.70
36924;DHT22;22841;50.252;18.688;2022-09-01T14:44:16;19.60;24.10
36924;DHT22;22841;50.252;18.688;2022-09-01T14:46:42;19.60;12.10
36924;DHT22;22841;50.252;18.688;2022-09-01T14:49:09;19.70;4.80
36924;DHT22;22841;50.252;18.688;2022-09-01T14:51:36;19.60;13.60
36924;DHT22;22841;50.252;18.688;2022-09-01T14:54:03;19.60;15.70
36924;DHT22;22841;50.252;18.688;2022-09-01T14:56:29;19.50;16.00
36924;DHT22;22841;50.252;18.688;2022-09-01T14:58:56;19.40;11.70
36924;DHT22;22841;50.252;18.688;2022-09-01T15:01:26;19.50;16.20
36924;DHT22;22841;50.252;18.688;2022-09-01T15:03:53;19.60;18.60
36924;DHT22;22841;50.252;18.688;2022-09-01T15:06:21;19.60;20.30
36924;DHT22;22841;50.252;18.688;2022-09-01T15:08:47;19.70;20.10
36924;DHT22;22841;50.252;18.688;2022-09-01T15:11:18;19.70;5.10
36924;DHT22;22841;50.252;18.688;2022-09-01T15:13:46;19.60;24.00
36924;DHT22;22841;50.252;18.688;2022-09-01T15:16:15;19.50;23.20
36924;DHT22;22841;50.252;18.688;2022-09-01T15:18:41;19.40;50.20
36924;DHT22;22841;50.252;18.688;2022-09-01T15:21:16;19.30;48.50
36924;DHT22;22841;50.252;18.688;2022-09-01T15:23:42;19.30;79.60
36924;DHT22;22841;50.252;18.688;2022-09-01T15:26:08;19.20;83.40
36924;DHT22;22841;50.252;18.688;2022-09-01T15:28:34;19.20;99.90
36924;DHT22;22841;50.252;18.688;2022-09-01T15:31:00;19.20;99.90
36924;DHT22;22841;50.252;18.688;2022-09-01T15:33:26;19.10;99.90
36924;DHT22;22841;50.252;18.688;2022-09-01T15:35:52;19.30;99.90
36924;DHT22;22841;50.252;18.688;2022-09-01T15:38:18;19.30;99.90
36924;DHT22;22841;50.252;18.688;2022-09-01T15:40:45;19.10;99.90
36924;DHT22;22841;50.252;18.688;2022-09-01T15:43:11;19.00;89.20
36924;DHT22;22841;50.252;18.688;2022-09-01T15:45:37;19.00;85.70
36924;DHT22;22841;50.252;18.688;2022-09-01T15:48:04;18.90;84.50
36924;DHT22;22841;50.252;18.688;2022-09-01T15:50:33;18.90;79.00
36924;DHT22;22841;50.252;18.688;2022-09-01T15:53:02;18.90;99.90
36924;DHT22;22841;50.252;18.688;2022-09-01T15:55:37;18.80;99.90
36924;DHT22;22841;50.252;18.688;2022-09-01T15:58:10;18.70;99.90
36924;DHT22;22841;50.252;18.688;2022-09-01T16:00:38;18.60;99.90
36924;DHT22;22841;50.252;18.688;2022-09-01T16:03:05;18.60;99.90
36924;DHT22;22841;50.252;18.688;2022-09-01T16:05:34;18.60;99.90
36924;DHT22;22841;50.252;18.688;2022-09-01T16:08:03;18.60;99.90
36924;DHT22;22841;50.252;18.688;2022-09-01T16:10:30;18.60;99.90
36924;DHT22;22841;50.252;18.688;2022-09-01T16:12:56;18.70;99.90
36924;DHT22;22841;50.252;18.688;2022-09-01T16:15:23;18.60;99.90
36924;DHT22;22841;50.252;18.688;2022-09-01T16:18:23;18.70;99.90
36924;DHT22;22841;50.252;18.688;2022-09-01T16:21:13;18.70;99.90
36924;DHT22;22841;50.252;18.688;2022-09-01T16:23:45;18.60;99.90
36924;DHT22;22841;50.252;18.688;2022-09-01T16:26:15;18.50;99.90
36924;DHT22;22841;50.252;18.688;2022-09-01T16:28:47;18.40;99.90
36924;DHT22;22841;50.252;18.688;2022-09-01T16:31:18;18.30;99.90
36924;DHT22;22841;50.252;18.688;2022-09-01T16:33:49;18.10;99.90
36924;DHT22;22841;50.252;18.688;2022-09-01T16:39:14;18.00;99.90
36924;DHT22;22841;50.252;18.688;2022-09-01T16:42:50;17.90;99.90
36924;DHT22;22841;50.252;18.688;2022-09-01T16:50:03;17.60;94.20
36924;DHT22;22841;50.252;18.688;2022-09-01T16:52:53;17.50;99.90